BAW1111 EGPH-EDDW
Flight info
| Callsign | BAW1111 |
|---|---|
| Flight time | 1h 35m |
| Altitude | 33000 |
| Route | TLA Y96 AGPED N110 DOLAS L603 LAMSO DCT PETIK DCT ANDIK M105 REVLA T948 GIBMA GIBMA2P |
| Aircraft | A320/M-SDE3FGHIRWY/LB1 |
Departure
| Time | 2026-04-22 15:32 |
|---|---|
| Airport | Edinburgh Airport (EGPH) |
Arrival
| Time | 2026-04-22 17:08 |
|---|---|
| Airport | Bremen Airport (EDDW) |
| Time | Latitude | Longitude | Altitude | Speed | Heading |
|---|---|---|---|---|---|
| 2026-04-22 15:10 | 55.94920 | -3.36429 | 102 ft | 0 kts | 148° |
| 2026-04-22 15:24 | 55.94922 | -3.36431 | 102 ft | 1 kts | 148° |
| 2026-04-22 15:24 | 55.94934 | -3.36445 | 102 ft | 2 kts | 148° |
| 2026-04-22 15:25 | 55.94947 | -3.36460 | 102 ft | 2 kts | 148° |
| 2026-04-22 15:25 | 55.94961 | -3.36469 | 102 ft | 2 kts | 174° |
| 2026-04-22 15:25 | 55.94976 | -3.36469 | 102 ft | 2 kts | 194° |
| 2026-04-22 15:25 | 55.94990 | -3.36459 | 102 ft | 2 kts | 214° |
| 2026-04-22 15:26 | 55.95001 | -3.36441 | 102 ft | 1 kts | 234° |
| 2026-04-22 15:26 | 55.95004 | -3.36431 | 102 ft | 1 kts | 241° |
| 2026-04-22 15:26 | 55.95005 | -3.36428 | 102 ft | 0 kts | 240° |
| 2026-04-22 15:28 | 55.95004 | -3.36431 | 102 ft | 2 kts | 240° |
| 2026-04-22 15:28 | 55.94964 | -3.36553 | 102 ft | 14 kts | 239° |
| 2026-04-22 15:28 | 55.94915 | -3.36700 | 102 ft | 11 kts | 239° |
| 2026-04-22 15:28 | 55.94912 | -3.36820 | 101 ft | 10 kts | 309° |
| 2026-04-22 15:29 | 55.94896 | -3.36983 | 100 ft | 22 kts | 241° |
| 2026-04-22 15:29 | 55.94816 | -3.37219 | 102 ft | 21 kts | 240° |
| 2026-04-22 15:29 | 55.94739 | -3.37457 | 101 ft | 22 kts | 240° |
| 2026-04-22 15:30 | 55.94611 | -3.37828 | 104 ft | 20 kts | 238° |
| 2026-04-22 15:30 | 55.94515 | -3.38106 | 108 ft | 20 kts | 239° |
| 2026-04-22 15:30 | 55.94442 | -3.38323 | 111 ft | 19 kts | 239° |
| 2026-04-22 15:30 | 55.94373 | -3.38533 | 112 ft | 19 kts | 240° |
| 2026-04-22 15:31 | 55.94304 | -3.38734 | 114 ft | 18 kts | 239° |
| 2026-04-22 15:31 | 55.94304 | -3.38886 | 115 ft | 17 kts | 324° |
| 2026-04-22 15:31 | 55.94405 | -3.38974 | 113 ft | 13 kts | 13° |
| 2026-04-22 15:31 | 55.94427 | -3.38943 | 113 ft | 0 kts | 57° |
| 2026-04-22 15:32 | 55.94490 | -3.38753 | 110 ft | 53 kts | 59° |
| 2026-04-22 15:32 | 55.94809 | -3.37816 | 101 ft | 121 kts | 59° |
| 2026-04-22 15:32 | 55.95322 | -3.36305 | 372 ft | 151 kts | 60° |
| 2026-04-22 15:32 | 55.95874 | -3.34684 | 997 ft | 157 kts | 55° |
| 2026-04-22 15:33 | 55.96603 | -3.33282 | 1739 ft | 156 kts | 47° |
| 2026-04-22 15:33 | 55.97409 | -3.31959 | 2283 ft | 167 kts | 46° |
| 2026-04-22 15:33 | 55.98313 | -3.30496 | 2757 ft | 184 kts | 46° |
| 2026-04-22 15:33 | 55.99294 | -3.28915 | 3222 ft | 201 kts | 46° |
| 2026-04-22 15:34 | 56.00388 | -3.27143 | 3616 ft | 224 kts | 45° |
| 2026-04-22 15:34 | 56.01594 | -3.25194 | 4141 ft | 242 kts | 45° |
| 2026-04-22 15:34 | 56.02868 | -3.23138 | 4812 ft | 254 kts | 45° |
| 2026-04-22 15:34 | 56.04174 | -3.21018 | 5622 ft | 258 kts | 47° |
| 2026-04-22 15:35 | 56.04912 | -3.19359 | 5992 ft | 257 kts | 65° |
| 2026-04-22 15:35 | 56.05294 | -3.15260 | 6456 ft | 255 kts | 97° |
| 2026-04-22 15:35 | 56.05083 | -3.12095 | 6487 ft | 256 kts | 100° |
| 2026-04-22 15:35 | 56.04485 | -3.09172 | 6491 ft | 254 kts | 126° |
| 2026-04-22 15:36 | 56.03231 | -3.06987 | 6498 ft | 256 kts | 141° |
| 2026-04-22 15:36 | 56.01800 | -3.05074 | 6490 ft | 258 kts | 142° |
| 2026-04-22 15:36 | 56.00361 | -3.03162 | 6493 ft | 258 kts | 141° |
| 2026-04-22 15:36 | 55.98932 | -3.01204 | 6493 ft | 259 kts | 141° |
| 2026-04-22 15:37 | 55.97488 | -2.99317 | 6499 ft | 259 kts | 148° |
| 2026-04-22 15:37 | 55.95835 | -2.97986 | 6496 ft | 261 kts | 161° |
| 2026-04-22 15:37 | 55.94062 | -2.97364 | 6487 ft | 263 kts | 173° |
| 2026-04-22 15:37 | 55.92233 | -2.97475 | 6480 ft | 266 kts | 186° |
| 2026-04-22 15:38 | 55.90432 | -2.98348 | 6476 ft | 269 kts | 200° |
| 2026-04-22 15:38 | 55.87384 | -3.02228 | 6470 ft | 275 kts | 226° |
| 2026-04-22 15:38 | 55.86161 | -3.04841 | 6465 ft | 275 kts | 225° |
| 2026-04-22 15:39 | 55.84787 | -3.07155 | 6470 ft | 272 kts | 214° |
| 2026-04-22 15:39 | 55.83188 | -3.08863 | 6464 ft | 269 kts | 204° |
| 2026-04-22 15:39 | 55.81503 | -3.10289 | 6465 ft | 269 kts | 202° |
| 2026-04-22 15:39 | 55.79802 | -3.11657 | 6464 ft | 270 kts | 201° |
| 2026-04-22 15:40 | 55.78089 | -3.13019 | 6456 ft | 270 kts | 201° |
| 2026-04-22 15:40 | 55.76370 | -3.14384 | 6457 ft | 269 kts | 201° |
| 2026-04-22 15:40 | 55.74677 | -3.15727 | 6461 ft | 270 kts | 201° |
| 2026-04-22 15:40 | 55.72947 | -3.17100 | 6445 ft | 270 kts | 201° |
| 2026-04-22 15:41 | 55.71244 | -3.18452 | 6441 ft | 269 kts | 201° |
| 2026-04-22 15:41 | 55.69546 | -3.19798 | 6444 ft | 269 kts | 201° |
| 2026-04-22 15:41 | 55.67848 | -3.21145 | 6449 ft | 269 kts | 201° |
| 2026-04-22 15:41 | 55.66141 | -3.22496 | 6444 ft | 269 kts | 201° |
| 2026-04-22 15:42 | 55.64425 | -3.23853 | 6445 ft | 269 kts | 201° |
| 2026-04-22 15:42 | 55.62721 | -3.25201 | 6445 ft | 268 kts | 201° |
| 2026-04-22 15:42 | 55.61035 | -3.26531 | 6449 ft | 268 kts | 201° |
| 2026-04-22 15:42 | 55.59328 | -3.27876 | 6449 ft | 268 kts | 201° |
| 2026-04-22 15:43 | 55.57618 | -3.29223 | 6438 ft | 268 kts | 201° |
| 2026-04-22 15:43 | 55.55931 | -3.30551 | 6435 ft | 268 kts | 201° |
| 2026-04-22 15:43 | 55.54216 | -3.31884 | 6434 ft | 269 kts | 198° |
| 2026-04-22 15:43 | 55.52373 | -3.32377 | 6732 ft | 272 kts | 169° |
| 2026-04-22 15:44 | 55.50671 | -3.31215 | 7735 ft | 263 kts | 143° |
| 2026-04-22 15:44 | 55.49454 | -3.28932 | 8658 ft | 261 kts | 119° |
| 2026-04-22 15:44 | 55.48891 | -3.25924 | 9432 ft | 265 kts | 102° |
| 2026-04-22 15:44 | 55.48563 | -3.22713 | 10156 ft | 271 kts | 102° |
| 2026-04-22 15:45 | 55.48220 | -3.19445 | 10837 ft | 277 kts | 102° |
| 2026-04-22 15:45 | 55.47855 | -3.16021 | 11247 ft | 293 kts | 102° |
| 2026-04-22 15:45 | 55.47463 | -3.12375 | 11584 ft | 311 kts | 102° |
| 2026-04-22 15:45 | 55.47051 | -3.08551 | 11929 ft | 327 kts | 102° |
| 2026-04-22 15:46 | 55.46625 | -3.04604 | 12532 ft | 334 kts | 103° |
| 2026-04-22 15:46 | 55.46035 | -3.00620 | 13250 ft | 336 kts | 110° |
| 2026-04-22 15:46 | 55.45165 | -2.96835 | 13914 ft | 338 kts | 117° |
| 2026-04-22 15:46 | 55.44056 | -2.93166 | 14556 ft | 342 kts | 120° |
| 2026-04-22 15:47 | 55.42892 | -2.89515 | 15187 ft | 347 kts | 121° |
| 2026-04-22 15:47 | 55.41697 | -2.85790 | 15803 ft | 351 kts | 121° |
| 2026-04-22 15:47 | 55.40498 | -2.82052 | 16416 ft | 355 kts | 121° |
| 2026-04-22 15:47 | 55.39288 | -2.78275 | 17003 ft | 358 kts | 121° |
| 2026-04-22 15:48 | 55.38067 | -2.74472 | 17564 ft | 363 kts | 121° |
| 2026-04-22 15:48 | 55.36817 | -2.70573 | 18128 ft | 367 kts | 121° |
| 2026-04-22 15:48 | 55.35572 | -2.66697 | 18664 ft | 371 kts | 121° |
| 2026-04-22 15:48 | 55.34292 | -2.62718 | 19177 ft | 376 kts | 121° |
| 2026-04-22 15:49 | 55.33011 | -2.58741 | 19644 ft | 381 kts | 120° |
| 2026-04-22 15:49 | 55.31708 | -2.54703 | 20107 ft | 386 kts | 120° |
| 2026-04-22 15:49 | 55.30383 | -2.50600 | 20579 ft | 391 kts | 120° |
| 2026-04-22 15:49 | 55.29023 | -2.46400 | 21047 ft | 396 kts | 120° |
| 2026-04-22 15:50 | 55.27671 | -2.42233 | 21478 ft | 400 kts | 120° |
| 2026-04-22 15:50 | 55.26280 | -2.37959 | 21923 ft | 405 kts | 120° |
| 2026-04-22 15:50 | 55.24894 | -2.33703 | 22362 ft | 410 kts | 121° |
| 2026-04-22 15:50 | 55.23476 | -2.29342 | 22807 ft | 414 kts | 121° |
| 2026-04-22 15:51 | 55.22046 | -2.24950 | 23228 ft | 419 kts | 121° |
| 2026-04-22 15:51 | 55.20582 | -2.20472 | 23655 ft | 423 kts | 121° |
| 2026-04-22 15:51 | 55.19127 | -2.16030 | 24083 ft | 427 kts | 121° |
| 2026-04-22 15:51 | 55.17645 | -2.11515 | 24537 ft | 431 kts | 121° |
| 2026-04-22 15:52 | 55.16160 | -2.07002 | 24979 ft | 434 kts | 121° |
| 2026-04-22 15:52 | 55.14650 | -2.02419 | 25419 ft | 438 kts | 121° |
| 2026-04-22 15:52 | 55.12983 | -1.97916 | 25842 ft | 440 kts | 129° |
| 2026-04-22 15:52 | 55.10896 | -1.94107 | 26269 ft | 440 kts | 141° |
| 2026-04-22 15:53 | 55.08387 | -1.91016 | 26690 ft | 440 kts | 151° |
| 2026-04-22 15:53 | 55.05741 | -1.88388 | 27073 ft | 443 kts | 153° |
| 2026-04-22 15:53 | 55.03051 | -1.85804 | 27435 ft | 447 kts | 153° |
| 2026-04-22 15:53 | 55.00303 | -1.83154 | 27812 ft | 450 kts | 153° |
| 2026-04-22 15:54 | 54.97589 | -1.80511 | 28180 ft | 453 kts | 153° |
| 2026-04-22 15:54 | 54.94812 | -1.77787 | 28541 ft | 455 kts | 153° |
| 2026-04-22 15:54 | 54.92089 | -1.75110 | 28974 ft | 455 kts | 152° |
| 2026-04-22 15:54 | 54.89323 | -1.72394 | 29453 ft | 454 kts | 153° |
| 2026-04-22 15:55 | 54.86582 | -1.69726 | 29895 ft | 453 kts | 153° |
| 2026-04-22 15:55 | 54.83866 | -1.67088 | 30300 ft | 453 kts | 153° |
| 2026-04-22 15:55 | 54.81112 | -1.64414 | 30680 ft | 453 kts | 152° |
| 2026-04-22 15:55 | 54.78394 | -1.61773 | 31027 ft | 453 kts | 152° |
| 2026-04-22 15:56 | 54.75660 | -1.59117 | 31383 ft | 452 kts | 152° |
| 2026-04-22 15:56 | 54.72920 | -1.56455 | 31755 ft | 450 kts | 152° |
| 2026-04-22 15:56 | 54.70215 | -1.53831 | 32067 ft | 450 kts | 152° |
| 2026-04-22 15:56 | 54.67462 | -1.51165 | 32344 ft | 451 kts | 152° |
| 2026-04-22 15:57 | 54.64747 | -1.48537 | 32599 ft | 452 kts | 152° |
| 2026-04-22 15:57 | 54.61999 | -1.45883 | 32861 ft | 452 kts | 152° |
| 2026-04-22 15:57 | 54.59285 | -1.43264 | 33111 ft | 453 kts | 152° |
| 2026-04-22 15:57 | 54.56527 | -1.40606 | 33358 ft | 454 kts | 152° |
| 2026-04-22 15:58 | 54.51029 | -1.35323 | 33450 ft | 455 kts | 152° |
| 2026-04-22 15:58 | 54.45533 | -1.30031 | 33457 ft | 455 kts | 152° |
| 2026-04-22 15:59 | 54.40019 | -1.24741 | 33454 ft | 456 kts | 152° |
| 2026-04-22 15:59 | 54.34491 | -1.19479 | 33453 ft | 456 kts | 152° |
| 2026-04-22 16:00 | 54.29960 | -1.14973 | 33452 ft | 457 kts | 148° |
| 2026-04-22 16:00 | 54.23863 | -1.07783 | 33447 ft | 457 kts | 146° |
| 2026-04-22 16:01 | 54.18675 | -1.01595 | 33444 ft | 457 kts | 146° |
| 2026-04-22 16:01 | 54.13451 | -0.95389 | 33439 ft | 458 kts | 146° |
| 2026-04-22 16:02 | 54.08249 | -0.89227 | 33439 ft | 458 kts | 146° |
| 2026-04-22 16:02 | 54.03052 | -0.83098 | 33436 ft | 458 kts | 146° |
| 2026-04-22 16:03 | 53.97799 | -0.76928 | 33432 ft | 459 kts | 146° |
| 2026-04-22 16:03 | 53.92566 | -0.70799 | 33423 ft | 459 kts | 146° |
| 2026-04-22 16:04 | 53.87302 | -0.64660 | 33433 ft | 459 kts | 146° |
| 2026-04-22 16:04 | 53.82051 | -0.58568 | 33430 ft | 459 kts | 145° |
| 2026-04-22 16:05 | 53.76799 | -0.52466 | 33426 ft | 460 kts | 145° |
| 2026-04-22 16:05 | 53.71553 | -0.46386 | 33429 ft | 460 kts | 145° |
| 2026-04-22 16:06 | 53.66288 | -0.40310 | 33431 ft | 460 kts | 145° |
| 2026-04-22 16:06 | 53.61116 | -0.33996 | 33429 ft | 460 kts | 141° |
| 2026-04-22 16:07 | 53.56425 | -0.26748 | 33433 ft | 460 kts | 133° |
| 2026-04-22 16:07 | 53.52295 | -0.18585 | 33433 ft | 459 kts | 126° |
| 2026-04-22 16:08 | 53.48481 | -0.10027 | 33432 ft | 459 kts | 126° |
| 2026-04-22 16:08 | 53.44660 | -0.01505 | 33430 ft | 459 kts | 126° |
| 2026-04-22 16:09 | 53.40813 | 0.07006 | 33426 ft | 460 kts | 126° |
| 2026-04-22 16:09 | 53.36957 | 0.15505 | 33425 ft | 460 kts | 126° |
| 2026-04-22 16:10 | 53.33097 | 0.23990 | 33420 ft | 460 kts | 125° |
| 2026-04-22 16:10 | 53.29207 | 0.32516 | 33416 ft | 459 kts | 126° |
| 2026-04-22 16:11 | 53.25348 | 0.40930 | 33408 ft | 460 kts | 125° |
| 2026-04-22 16:11 | 53.21467 | 0.49347 | 33404 ft | 460 kts | 125° |
| 2026-04-22 16:12 | 53.17549 | 0.57818 | 33404 ft | 461 kts | 125° |
| 2026-04-22 16:12 | 53.13643 | 0.66245 | 33405 ft | 461 kts | 126° |
| 2026-04-22 16:13 | 53.09739 | 0.74672 | 33401 ft | 461 kts | 126° |
| 2026-04-22 16:13 | 53.05822 | 0.83078 | 33404 ft | 461 kts | 126° |
| 2026-04-22 16:14 | 53.01964 | 0.91536 | 33396 ft | 461 kts | 122° |
| 2026-04-22 16:14 | 52.98827 | 1.00704 | 33393 ft | 458 kts | 111° |
| 2026-04-22 16:15 | 52.96677 | 1.10523 | 33398 ft | 452 kts | 101° |
| 2026-04-22 16:15 | 52.95397 | 1.20650 | 33408 ft | 449 kts | 97° |
| 2026-04-22 16:16 | 52.94252 | 1.30767 | 33414 ft | 448 kts | 97° |
| 2026-04-22 16:16 | 52.93085 | 1.40856 | 33411 ft | 446 kts | 97° |
| 2026-04-22 16:17 | 52.91907 | 1.50869 | 33411 ft | 445 kts | 97° |
| 2026-04-22 16:17 | 52.90719 | 1.60863 | 33413 ft | 444 kts | 97° |
| 2026-04-22 16:18 | 52.89516 | 1.70853 | 33408 ft | 443 kts | 99° |
| 2026-04-22 16:18 | 52.88290 | 1.80786 | 33410 ft | 442 kts | 99° |
| 2026-04-22 16:19 | 52.87074 | 1.90695 | 33407 ft | 441 kts | 99° |
| 2026-04-22 16:19 | 52.85854 | 2.00635 | 33411 ft | 440 kts | 99° |
| 2026-04-22 16:20 | 52.84629 | 2.10534 | 33407 ft | 440 kts | 99° |
| 2026-04-22 16:20 | 52.83406 | 2.20370 | 33400 ft | 439 kts | 98° |
| 2026-04-22 16:21 | 52.82179 | 2.30208 | 33396 ft | 439 kts | 98° |
| 2026-04-22 16:21 | 52.80943 | 2.40051 | 33392 ft | 439 kts | 99° |
| 2026-04-22 16:22 | 52.79058 | 2.54828 | 33384 ft | 438 kts | 98° |
| 2026-04-22 16:23 | 52.77161 | 2.69553 | 33391 ft | 438 kts | 99° |
| 2026-04-22 16:23 | 52.75890 | 2.79343 | 33389 ft | 437 kts | 99° |
| 2026-04-22 16:24 | 52.73971 | 2.93971 | 33390 ft | 437 kts | 99° |
| 2026-04-22 16:25 | 52.72839 | 3.03772 | 33385 ft | 436 kts | 96° |
| 2026-04-22 16:25 | 52.71473 | 3.18507 | 33385 ft | 436 kts | 95° |
| 2026-04-22 16:26 | 52.70553 | 3.28399 | 33385 ft | 436 kts | 95° |
| 2026-04-22 16:26 | 52.69628 | 3.38227 | 33388 ft | 435 kts | 95° |
| 2026-04-22 16:27 | 52.68697 | 3.48042 | 33386 ft | 435 kts | 95° |
| 2026-04-22 16:27 | 52.67757 | 3.57849 | 33378 ft | 435 kts | 95° |
| 2026-04-22 16:28 | 52.66808 | 3.67679 | 33382 ft | 435 kts | 96° |
| 2026-04-22 16:28 | 52.65860 | 3.77426 | 33380 ft | 435 kts | 96° |
| 2026-04-22 16:29 | 52.64898 | 3.87232 | 33382 ft | 435 kts | 95° |
| 2026-04-22 16:29 | 52.63928 | 3.97040 | 33381 ft | 435 kts | 95° |
| 2026-04-22 16:30 | 52.62944 | 4.06868 | 33377 ft | 435 kts | 95° |
| 2026-04-22 16:30 | 52.62310 | 4.16631 | 33373 ft | 431 kts | 89° |
| 2026-04-22 16:31 | 52.62384 | 4.26429 | 33374 ft | 427 kts | 82° |
| 2026-04-22 16:31 | 52.63161 | 4.36069 | 33379 ft | 424 kts | 75° |
| 2026-04-22 16:32 | 52.64308 | 4.45497 | 33374 ft | 423 kts | 75° |
| 2026-04-22 16:32 | 52.65458 | 4.54939 | 33367 ft | 423 kts | 75° |
| 2026-04-22 16:33 | 52.66600 | 4.64426 | 33368 ft | 423 kts | 75° |
| 2026-04-22 16:33 | 52.67725 | 4.73900 | 33372 ft | 423 kts | 76° |
| 2026-04-22 16:34 | 52.68840 | 4.83350 | 33377 ft | 422 kts | 76° |
| 2026-04-22 16:34 | 52.69953 | 4.92840 | 33377 ft | 421 kts | 76° |
| 2026-04-22 16:35 | 52.71056 | 5.02288 | 33374 ft | 421 kts | 76° |
| 2026-04-22 16:35 | 52.72147 | 5.11707 | 33376 ft | 421 kts | 76° |
| 2026-04-22 16:36 | 52.73236 | 5.21164 | 33377 ft | 420 kts | 75° |
| 2026-04-22 16:36 | 52.74659 | 5.30417 | 33381 ft | 418 kts | 69° |
| 2026-04-22 16:37 | 52.76550 | 5.39426 | 33385 ft | 417 kts | 68° |
| 2026-04-22 16:37 | 52.78492 | 5.48420 | 33388 ft | 417 kts | 68° |
| 2026-04-22 16:38 | 52.80419 | 5.57390 | 33387 ft | 416 kts | 68° |
| 2026-04-22 16:38 | 52.82347 | 5.66413 | 33385 ft | 416 kts | 68° |
| 2026-04-22 16:39 | 52.84258 | 5.75428 | 33383 ft | 416 kts | 69° |
| 2026-04-22 16:39 | 52.86153 | 5.84397 | 33378 ft | 416 kts | 69° |
| 2026-04-22 16:40 | 52.88056 | 5.93435 | 33369 ft | 416 kts | 69° |
| 2026-04-22 16:41 | 52.90892 | 6.06969 | 33371 ft | 416 kts | 69° |
| 2026-04-22 16:41 | 52.92773 | 6.15989 | 33267 ft | 417 kts | 69° |
| 2026-04-22 16:41 | 52.93717 | 6.20531 | 33038 ft | 414 kts | 69° |
| 2026-04-22 16:42 | 52.94639 | 6.24984 | 32814 ft | 412 kts | 69° |
| 2026-04-22 16:42 | 52.95566 | 6.29467 | 32585 ft | 410 kts | 69° |
| 2026-04-22 16:42 | 52.96477 | 6.33880 | 32359 ft | 407 kts | 69° |
| 2026-04-22 16:42 | 52.97393 | 6.38331 | 32131 ft | 406 kts | 69° |
| 2026-04-22 16:43 | 52.98294 | 6.42717 | 31903 ft | 406 kts | 69° |
| 2026-04-22 16:43 | 52.99208 | 6.47172 | 31603 ft | 406 kts | 69° |
| 2026-04-22 16:43 | 53.00104 | 6.51556 | 31196 ft | 407 kts | 69° |
| 2026-04-22 16:43 | 53.01015 | 6.56020 | 30628 ft | 408 kts | 69° |
| 2026-04-22 16:44 | 53.01913 | 6.60423 | 30018 ft | 407 kts | 69° |
| 2026-04-22 16:44 | 53.02817 | 6.64872 | 29401 ft | 407 kts | 68° |
| 2026-04-22 16:44 | 53.03712 | 6.69299 | 28767 ft | 407 kts | 69° |
| 2026-04-22 16:44 | 53.04611 | 6.73758 | 28141 ft | 407 kts | 69° |
| 2026-04-22 16:45 | 53.05496 | 6.78151 | 27700 ft | 402 kts | 69° |
| 2026-04-22 16:45 | 53.06377 | 6.82537 | 27284 ft | 396 kts | 69° |
| 2026-04-22 16:45 | 53.07241 | 6.86803 | 26861 ft | 392 kts | 69° |
| 2026-04-22 16:45 | 53.08102 | 6.91093 | 26426 ft | 387 kts | 69° |
| 2026-04-22 16:46 | 53.08939 | 6.95280 | 25999 ft | 383 kts | 69° |
| 2026-04-22 16:46 | 53.09777 | 6.99475 | 25570 ft | 380 kts | 69° |
| 2026-04-22 16:46 | 53.10605 | 7.03596 | 25135 ft | 376 kts | 68° |
| 2026-04-22 16:46 | 53.11440 | 7.07721 | 24693 ft | 373 kts | 69° |
| 2026-04-22 16:47 | 53.12239 | 7.11757 | 24286 ft | 374 kts | 71° |
| 2026-04-22 16:47 | 53.12638 | 7.16097 | 23849 ft | 384 kts | 84° |
| 2026-04-22 16:47 | 53.12650 | 7.19061 | 23556 ft | 385 kts | 87° |
| 2026-04-22 16:47 | 53.12544 | 7.24956 | 22978 ft | 382 kts | 88° |
| 2026-04-22 16:48 | 53.12441 | 7.29329 | 22541 ft | 381 kts | 88° |
| 2026-04-22 16:48 | 53.12332 | 7.33733 | 22111 ft | 379 kts | 88° |
| 2026-04-22 16:48 | 53.12224 | 7.38054 | 21682 ft | 377 kts | 88° |
| 2026-04-22 16:48 | 53.12111 | 7.42406 | 21256 ft | 375 kts | 88° |
| 2026-04-22 16:49 | 53.11998 | 7.46697 | 20840 ft | 373 kts | 88° |
| 2026-04-22 16:49 | 53.11881 | 7.51010 | 20416 ft | 371 kts | 88° |
| 2026-04-22 16:49 | 53.11763 | 7.55240 | 20001 ft | 368 kts | 88° |
| 2026-04-22 16:49 | 53.11640 | 7.59445 | 19590 ft | 366 kts | 88° |
| 2026-04-22 16:50 | 53.11514 | 7.63682 | 19162 ft | 364 kts | 88° |
| 2026-04-22 16:50 | 53.11388 | 7.67864 | 18746 ft | 363 kts | 89° |
| 2026-04-22 16:50 | 53.11321 | 7.72008 | 18330 ft | 360 kts | 85° |
| 2026-04-22 16:50 | 53.11382 | 7.76168 | 17926 ft | 357 kts | 84° |
| 2026-04-22 16:51 | 53.11470 | 7.80255 | 17513 ft | 355 kts | 84° |
| 2026-04-22 16:51 | 53.11565 | 7.84378 | 17114 ft | 354 kts | 84° |
| 2026-04-22 16:51 | 53.11659 | 7.88391 | 16658 ft | 351 kts | 84° |
| 2026-04-22 16:51 | 53.11753 | 7.92459 | 16141 ft | 349 kts | 84° |
| 2026-04-22 16:52 | 53.11847 | 7.96448 | 15646 ft | 347 kts | 83° |
| 2026-04-22 16:52 | 53.11941 | 8.00440 | 15168 ft | 345 kts | 83° |
| 2026-04-22 16:52 | 53.12035 | 8.04377 | 14696 ft | 342 kts | 83° |
| 2026-04-22 16:52 | 53.12131 | 8.08340 | 14210 ft | 340 kts | 83° |
| 2026-04-22 16:53 | 53.12225 | 8.12238 | 13750 ft | 337 kts | 83° |
| 2026-04-22 16:53 | 53.12320 | 8.16090 | 13270 ft | 335 kts | 84° |
| 2026-04-22 16:53 | 53.12425 | 8.19961 | 12792 ft | 334 kts | 83° |
| 2026-04-22 16:53 | 53.12535 | 8.23775 | 12298 ft | 332 kts | 83° |
| 2026-04-22 16:54 | 53.12652 | 8.27638 | 11670 ft | 335 kts | 83° |
| 2026-04-22 16:54 | 53.12777 | 8.31471 | 11028 ft | 331 kts | 83° |
| 2026-04-22 16:54 | 53.12905 | 8.35232 | 10390 ft | 319 kts | 83° |
| 2026-04-22 16:54 | 53.13032 | 8.38832 | 9768 ft | 308 kts | 83° |
| 2026-04-22 16:55 | 53.13158 | 8.42293 | 9129 ft | 298 kts | 83° |
| 2026-04-22 16:55 | 53.13280 | 8.45638 | 8832 ft | 278 kts | 83° |
| 2026-04-22 16:55 | 53.13395 | 8.48816 | 8454 ft | 278 kts | 83° |
| 2026-04-22 16:55 | 53.13514 | 8.52023 | 7945 ft | 280 kts | 83° |
| 2026-04-22 16:56 | 53.13634 | 8.55246 | 7417 ft | 276 kts | 83° |
| 2026-04-22 16:56 | 53.13750 | 8.58378 | 6902 ft | 268 kts | 83° |
| 2026-04-22 16:56 | 53.13862 | 8.61447 | 6371 ft | 266 kts | 83° |
| 2026-04-22 16:56 | 53.13974 | 8.64499 | 5845 ft | 265 kts | 83° |
| 2026-04-22 16:57 | 53.14084 | 8.67520 | 5354 ft | 266 kts | 84° |
| 2026-04-22 16:57 | 53.14193 | 8.70600 | 4986 ft | 264 kts | 84° |
| 2026-04-22 16:57 | 53.14299 | 8.73636 | 4679 ft | 261 kts | 84° |
| 2026-04-22 16:57 | 53.14400 | 8.76609 | 4357 ft | 260 kts | 84° |
| 2026-04-22 16:58 | 53.14469 | 8.78618 | 4115 ft | 259 kts | 84° |
| 2026-04-22 16:58 | 53.14605 | 8.82574 | 3629 ft | 258 kts | 84° |
| 2026-04-22 16:58 | 53.14708 | 8.85543 | 3276 ft | 258 kts | 84° |
| 2026-04-22 16:58 | 53.14814 | 8.88526 | 3012 ft | 255 kts | 84° |
| 2026-04-22 16:59 | 53.14918 | 8.91467 | 2969 ft | 257 kts | 84° |
| 2026-04-22 16:59 | 53.15023 | 8.94404 | 2965 ft | 257 kts | 84° |
| 2026-04-22 16:59 | 53.15129 | 8.97399 | 2975 ft | 257 kts | 84° |
| 2026-04-22 16:59 | 53.15234 | 9.00361 | 2969 ft | 257 kts | 84° |
| 2026-04-22 17:00 | 53.15339 | 9.03318 | 2967 ft | 257 kts | 84° |
| 2026-04-22 17:00 | 53.15537 | 9.09254 | 2963 ft | 257 kts | 84° |
| 2026-04-22 17:00 | 53.15633 | 9.12232 | 2958 ft | 256 kts | 84° |
| 2026-04-22 17:01 | 53.15729 | 9.15179 | 2959 ft | 257 kts | 84° |
| 2026-04-22 17:01 | 53.15825 | 9.18119 | 2953 ft | 257 kts | 84° |
| 2026-04-22 17:01 | 53.15897 | 9.21117 | 2948 ft | 254 kts | 91° |
| 2026-04-22 17:01 | 53.15344 | 9.23826 | 2937 ft | 252 kts | 127° |
| 2026-04-22 17:02 | 53.13934 | 9.25521 | 2952 ft | 255 kts | 160° |
| 2026-04-22 17:02 | 53.12202 | 9.25883 | 2955 ft | 255 kts | 188° |
| 2026-04-22 17:02 | 53.10560 | 9.24920 | 2957 ft | 252 kts | 216° |
| 2026-04-22 17:02 | 53.09341 | 9.22860 | 2973 ft | 249 kts | 237° |
| 2026-04-22 17:03 | 53.08359 | 9.20478 | 2972 ft | 250 kts | 239° |
| 2026-04-22 17:03 | 53.07471 | 9.17993 | 2972 ft | 250 kts | 244° |
| 2026-04-22 17:03 | 53.06725 | 9.15419 | 2974 ft | 249 kts | 250° |
| 2026-04-22 17:03 | 53.06122 | 9.12726 | 2970 ft | 248 kts | 255° |
| 2026-04-22 17:04 | 53.05616 | 9.10001 | 2969 ft | 247 kts | 259° |
| 2026-04-22 17:04 | 53.05322 | 9.07208 | 2958 ft | 242 kts | 268° |
| 2026-04-22 17:04 | 53.05255 | 9.04499 | 2835 ft | 228 kts | 272° |
| 2026-04-22 17:04 | 53.05241 | 9.01957 | 2553 ft | 215 kts | 272° |
| 2026-04-22 17:05 | 53.05201 | 8.99532 | 2258 ft | 207 kts | 271° |
| 2026-04-22 17:05 | 53.05141 | 8.97201 | 2020 ft | 196 kts | 271° |
| 2026-04-22 17:05 | 53.05078 | 8.95010 | 1771 ft | 182 kts | 271° |
| 2026-04-22 17:05 | 53.05024 | 8.93018 | 1516 ft | 167 kts | 271° |
| 2026-04-22 17:06 | 53.04978 | 8.91166 | 1288 ft | 152 kts | 272° |
| 2026-04-22 17:06 | 53.04937 | 8.89487 | 1069 ft | 141 kts | 272° |
| 2026-04-22 17:06 | 53.04899 | 8.87874 | 896 ft | 140 kts | 272° |
| 2026-04-22 17:06 | 53.04860 | 8.86267 | 721 ft | 139 kts | 272° |
| 2026-04-22 17:07 | 53.04821 | 8.84670 | 513 ft | 140 kts | 272° |
| 2026-04-22 17:07 | 53.04782 | 8.83064 | 313 ft | 138 kts | 271° |
| 2026-04-22 17:07 | 53.04745 | 8.81488 | 147 ft | 135 kts | 271° |
| 2026-04-22 17:07 | 53.04711 | 8.79941 | 27 ft | 126 kts | 271° |
| 2026-04-22 17:08 | 53.04692 | 8.78784 | 9 ft | 61 kts | 268° |
| 2026-04-22 17:08 | 53.04676 | 8.78172 | 9 ft | 49 kts | 268° |
| 2026-04-22 17:08 | 53.04663 | 8.77662 | 12 ft | 33 kts | 268° |
| 2026-04-22 17:08 | 53.04715 | 8.77453 | 15 ft | 19 kts | 347° |
| 2026-04-22 17:09 | 53.04844 | 8.77472 | 15 ft | 18 kts | 17° |
| 2026-04-22 17:09 | 53.04949 | 8.77590 | 13 ft | 19 kts | 45° |
| 2026-04-22 17:09 | 53.05013 | 8.77698 | 12 ft | 19 kts | 46° |
| 2026-04-22 17:09 | 53.05143 | 8.77937 | 12 ft | 24 kts | 52° |
| 2026-04-22 17:10 | 53.05188 | 8.78190 | 13 ft | 23 kts | 103° |
| 2026-04-22 17:10 | 53.05153 | 8.78365 | 15 ft | 7 kts | 118° |
| 2026-04-22 17:10 | 53.05157 | 8.78411 | 16 ft | 4 kts | 49° |
| 2026-04-22 17:10 | 53.05180 | 8.78441 | 18 ft | 5 kts | 36° |
| 2026-04-22 17:11 | 53.05201 | 8.78467 | 19 ft | 0 kts | 37° |